sensor_id;sensor_type;location;lat;lon;timestamp;P1;durP1;ratioP1;P2;durP2;ratioP2
60730;SDS011;46580;52.114;11.674;2023-10-13T00:01:19;6.37;;;3.73;;
60730;SDS011;46580;52.114;11.674;2023-10-13T00:03:45;5.43;;;3.90;;
60730;SDS011;46580;52.114;11.674;2023-10-13T00:06:10;8.57;;;4.10;;
60730;SDS011;46580;52.114;11.674;2023-10-13T00:08:35;5.27;;;3.23;;
60730;SDS011;46580;52.114;11.674;2023-10-13T00:11:05;5.00;;;3.33;;
60730;SDS011;46580;52.114;11.674;2023-10-13T00:13:30;6.50;;;3.40;;
60730;SDS011;46580;52.114;11.674;2023-10-13T00:16:07;7.30;;;3.90;;
60730;SDS011;46580;52.114;11.674;2023-10-13T00:18:35;8.60;;;3.50;;
60730;SDS011;46580;52.114;11.674;2023-10-13T00:21:00;4.60;;;2.80;;
60730;SDS011;46580;52.114;11.674;2023-10-13T00:23:37;7.33;;;3.60;;
60730;SDS011;46580;52.114;11.674;2023-10-13T00:26:04;6.90;;;3.30;;
60730;SDS011;46580;52.114;11.674;2023-10-13T00:28:34;7.30;;;3.90;;
60730;SDS011;46580;52.114;11.674;2023-10-13T00:31:22;4.93;;;3.23;;
60730;SDS011;46580;52.114;11.674;2023-10-13T00:33:48;4.40;;;3.10;;
60730;SDS011;46580;52.114;11.674;2023-10-13T00:36:14;6.73;;;4.03;;
60730;SDS011;46580;52.114;11.674;2023-10-13T00:38:44;7.80;;;4.27;;
60730;SDS011;46580;52.114;11.674;2023-10-13T00:41:13;6.87;;;3.67;;
60730;SDS011;46580;52.114;11.674;2023-10-13T00:43:44;6.33;;;4.23;;
60730;SDS011;46580;52.114;11.674;2023-10-13T00:46:28;6.37;;;4.20;;
60730;SDS011;46580;52.114;11.674;2023-10-13T00:48:58;7.50;;;4.10;;
60730;SDS011;46580;52.114;11.674;2023-10-13T00:51:23;8.40;;;3.90;;
60730;SDS011;46580;52.114;11.674;2023-10-13T00:53:58;10.17;;;5.20;;
60730;SDS011;46580;52.114;11.674;2023-10-13T00:56:25;13.10;;;5.27;;
60730;SDS011;46580;52.114;11.674;2023-10-13T00:58:52;9.47;;;5.30;;
60730;SDS011;46580;52.114;11.674;2023-10-13T01:01:22;12.63;;;5.27;;
60730;SDS011;46580;52.114;11.674;2023-10-13T01:03:48;10.63;;;5.40;;
60730;SDS011;46580;52.114;11.674;2023-10-13T01:06:18;7.30;;;4.40;;
60730;SDS011;46580;52.114;11.674;2023-10-13T01:08:45;10.50;;;5.33;;
60730;SDS011;46580;52.114;11.674;2023-10-13T01:11:16;10.33;;;5.27;;
60730;SDS011;46580;52.114;11.674;2023-10-13T01:13:42;9.40;;;5.43;;
60730;SDS011;46580;52.114;11.674;2023-10-13T01:16:08;9.40;;;5.67;;
60730;SDS011;46580;52.114;11.674;2023-10-13T01:18:33;8.77;;;5.57;;
60730;SDS011;46580;52.114;11.674;2023-10-13T01:21:12;10.17;;;5.93;;
60730;SDS011;46580;52.114;11.674;2023-10-13T01:23:40;10.10;;;5.53;;
60730;SDS011;46580;52.114;11.674;2023-10-13T01:26:07;10.63;;;5.77;;
60730;SDS011;46580;52.114;11.674;2023-10-13T01:28:34;11.50;;;6.53;;
60730;SDS011;46580;52.114;11.674;2023-10-13T01:31:10;10.40;;;5.50;;
60730;SDS011;46580;52.114;11.674;2023-10-13T01:33:38;8.33;;;5.93;;
60730;SDS011;46580;52.114;11.674;2023-10-13T01:36:03;9.53;;;6.23;;
60730;SDS011;46580;52.114;11.674;2023-10-13T01:38:34;12.33;;;6.07;;
60730;SDS011;46580;52.114;11.674;2023-10-13T01:41:04;12.87;;;7.30;;
60730;SDS011;46580;52.114;11.674;2023-10-13T01:43:30;8.80;;;5.70;;
60730;SDS011;46580;52.114;11.674;2023-10-13T01:45:55;7.70;;;5.17;;
60730;SDS011;46580;52.114;11.674;2023-10-13T01:48:21;12.53;;;6.90;;
60730;SDS011;46580;52.114;11.674;2023-10-13T01:50:46;14.97;;;8.10;;
60730;SDS011;46580;52.114;11.674;2023-10-13T01:53:21;12.80;;;7.23;;
60730;SDS011;46580;52.114;11.674;2023-10-13T01:55:47;11.40;;;6.40;;
60730;SDS011;46580;52.114;11.674;2023-10-13T01:58:15;10.30;;;6.63;;
60730;SDS011;46580;52.114;11.674;2023-10-13T02:00:45;10.00;;;7.33;;
60730;SDS011;46580;52.114;11.674;2023-10-13T02:03:12;11.30;;;7.03;;
60730;SDS011;46580;52.114;11.674;2023-10-13T02:05:42;11.70;;;7.40;;
60730;SDS011;46580;52.114;11.674;2023-10-13T02:08:17;11.00;;;7.07;;
60730;SDS011;46580;52.114;11.674;2023-10-13T02:10:48;13.30;;;7.87;;
60730;SDS011;46580;52.114;11.674;2023-10-13T02:13:14;12.13;;;7.63;;
60730;SDS011;46580;52.114;11.674;2023-10-13T02:15:42;14.40;;;8.13;;
60730;SDS011;46580;52.114;11.674;2023-10-13T02:18:09;12.63;;;8.03;;
60730;SDS011;46580;52.114;11.674;2023-10-13T02:20:35;16.20;;;9.13;;
60730;SDS011;46580;52.114;11.674;2023-10-13T02:23:07;11.90;;;8.10;;
60730;SDS011;46580;52.114;11.674;2023-10-13T02:25:35;16.03;;;8.07;;
60730;SDS011;46580;52.114;11.674;2023-10-13T02:28:08;12.37;;;7.97;;
60730;SDS011;46580;52.114;11.674;2023-10-13T02:30:42;15.93;;;8.10;;
60730;SDS011;46580;52.114;11.674;2023-10-13T02:33:13;12.10;;;7.70;;
60730;SDS011;46580;52.114;11.674;2023-10-13T02:35:40;12.43;;;8.23;;
60730;SDS011;46580;52.114;11.674;2023-10-13T02:38:21;12.30;;;7.93;;
60730;SDS011;46580;52.114;11.674;2023-10-13T02:41:17;9.97;;;7.23;;
60730;SDS011;46580;52.114;11.674;2023-10-13T02:43:54;13.37;;;7.53;;
60730;SDS011;46580;52.114;11.674;2023-10-13T02:46:20;10.87;;;8.10;;
60730;SDS011;46580;52.114;11.674;2023-10-13T02:48:55;15.60;;;9.00;;
60730;SDS011;46580;52.114;11.674;2023-10-13T02:51:22;14.27;;;8.27;;
60730;SDS011;46580;52.114;11.674;2023-10-13T02:54:00;17.27;;;8.57;;
60730;SDS011;46580;52.114;11.674;2023-10-13T02:56:28;15.27;;;8.40;;
60730;SDS011;46580;52.114;11.674;2023-10-13T02:58:54;13.70;;;8.33;;
60730;SDS011;46580;52.114;11.674;2023-10-13T03:01:22;12.03;;;7.90;;
60730;SDS011;46580;52.114;11.674;2023-10-13T03:03:54;11.97;;;7.30;;
60730;SDS011;46580;52.114;11.674;2023-10-13T03:06:21;15.40;;;8.77;;
60730;SDS011;46580;52.114;11.674;2023-10-13T03:08:49;13.07;;;8.27;;
60730;SDS011;46580;52.114;11.674;2023-10-13T03:11:16;13.03;;;7.80;;
60730;SDS011;46580;52.114;11.674;2023-10-13T03:13:48;11.70;;;7.83;;
60730;SDS011;46580;52.114;11.674;2023-10-13T03:16:17;14.80;;;8.53;;
60730;SDS011;46580;52.114;11.674;2023-10-13T03:18:44;12.47;;;7.70;;
60730;SDS011;46580;52.114;11.674;2023-10-13T03:21:21;10.80;;;7.43;;
60730;SDS011;46580;52.114;11.674;2023-10-13T03:23:56;11.73;;;7.77;;
60730;SDS011;46580;52.114;11.674;2023-10-13T03:26:29;13.60;;;7.77;;
60730;SDS011;46580;52.114;11.674;2023-10-13T03:28:59;13.17;;;7.60;;
60730;SDS011;46580;52.114;11.674;2023-10-13T03:31:27;12.27;;;7.73;;
60730;SDS011;46580;52.114;11.674;2023-10-13T03:33:53;11.30;;;6.43;;
60730;SDS011;46580;52.114;11.674;2023-10-13T03:36:24;10.30;;;6.50;;
60730;SDS011;46580;52.114;11.674;2023-10-13T03:39:12;9.70;;;6.30;;
60730;SDS011;46580;52.114;11.674;2023-10-13T03:41:39;11.13;;;7.13;;
60730;SDS011;46580;52.114;11.674;2023-10-13T03:44:05;10.43;;;6.43;;
60730;SDS011;46580;52.114;11.674;2023-10-13T03:46:43;10.57;;;6.10;;
60730;SDS011;46580;52.114;11.674;2023-10-13T03:49:12;10.30;;;6.43;;
60730;SDS011;46580;52.114;11.674;2023-10-13T03:51:47;8.63;;;6.20;;
60730;SDS011;46580;52.114;11.674;2023-10-13T03:54:13;7.73;;;6.00;;
60730;SDS011;46580;52.114;11.674;2023-10-13T03:56:41;11.17;;;5.93;;
60730;SDS011;46580;52.114;11.674;2023-10-13T03:59:09;12.30;;;6.23;;
60730;SDS011;46580;52.114;11.674;2023-10-13T04:01:42;10.30;;;6.60;;
60730;SDS011;46580;52.114;11.674;2023-10-13T04:04:08;9.03;;;5.83;;
60730;SDS011;46580;52.114;11.674;2023-10-13T04:06:37;12.30;;;7.10;;
60730;SDS011;46580;52.114;11.674;2023-10-13T04:12:03;9.67;;;6.70;;
60730;SDS011;46580;52.114;11.674;2023-10-13T04:14:30;9.53;;;6.27;;
60730;SDS011;46580;52.114;11.674;2023-10-13T04:17:14;13.10;;;7.10;;
60730;SDS011;46580;52.114;11.674;2023-10-13T04:19:40;10.10;;;6.30;;
60730;SDS011;46580;52.114;11.674;2023-10-13T04:22:26;13.27;;;6.87;;
60730;SDS011;46580;52.114;11.674;2023-10-13T04:25:23;9.17;;;6.07;;
60730;SDS011;46580;52.114;11.674;2023-10-13T04:28:17;11.20;;;6.30;;
60730;SDS011;46580;52.114;11.674;2023-10-13T04:30:51;10.43;;;6.90;;
60730;SDS011;46580;52.114;11.674;2023-10-13T04:33:23;10.97;;;6.73;;
60730;SDS011;46580;52.114;11.674;2023-10-13T04:36:15;11.47;;;7.50;;
60730;SDS011;46580;52.114;11.674;2023-10-13T04:38:42;12.70;;;6.77;;
60730;SDS011;46580;52.114;11.674;2023-10-13T04:41:27;10.43;;;6.87;;
60730;SDS011;46580;52.114;11.674;2023-10-13T04:44:03;9.70;;;6.77;;
60730;SDS011;46580;52.114;11.674;2023-10-13T04:47:07;11.53;;;7.20;;
60730;SDS011;46580;52.114;11.674;2023-10-13T04:49:42;10.77;;;6.83;;
60730;SDS011;46580;52.114;11.674;2023-10-13T04:52:09;13.20;;;7.00;;
60730;SDS011;46580;52.114;11.674;2023-10-13T04:54:45;14.57;;;7.80;;
60730;SDS011;46580;52.114;11.674;2023-10-13T04:57:22;11.20;;;7.83;;
60730;SDS011;46580;52.114;11.674;2023-10-13T05:00:00;12.77;;;7.50;;
60730;SDS011;46580;52.114;11.674;2023-10-13T05:02:36;11.53;;;7.47;;
60730;SDS011;46580;52.114;11.674;2023-10-13T05:05:03;13.23;;;8.00;;
60730;SDS011;46580;52.114;11.674;2023-10-13T05:07:32;12.63;;;6.97;;
60730;SDS011;46580;52.114;11.674;2023-10-13T05:10:16;9.87;;;6.80;;
60730;SDS011;46580;52.114;11.674;2023-10-13T05:13:01;14.07;;;7.23;;
60730;SDS011;46580;52.114;11.674;2023-10-13T05:15:46;14.20;;;7.20;;
60730;SDS011;46580;52.114;11.674;2023-10-13T05:18:31;11.77;;;7.77;;
60730;SDS011;46580;52.114;11.674;2023-10-13T05:21:16;12.40;;;7.17;;
60730;SDS011;46580;52.114;11.674;2023-10-13T05:24:00;13.53;;;7.50;;
60730;SDS011;46580;52.114;11.674;2023-10-13T05:26:44;11.10;;;7.33;;
60730;SDS011;46580;52.114;11.674;2023-10-13T05:29:28;10.63;;;6.90;;
60730;SDS011;46580;52.114;11.674;2023-10-13T05:32:12;13.67;;;7.07;;
60730;SDS011;46580;52.114;11.674;2023-10-13T05:34:56;12.07;;;6.70;;
60730;SDS011;46580;52.114;11.674;2023-10-13T05:37:41;15.17;;;7.80;;
60730;SDS011;46580;52.114;11.674;2023-10-13T05:40:24;12.07;;;7.37;;
60730;SDS011;46580;52.114;11.674;2023-10-13T05:43:08;9.60;;;6.40;;
60730;SDS011;46580;52.114;11.674;2023-10-13T05:45:54;14.43;;;8.00;;
60730;SDS011;46580;52.114;11.674;2023-10-13T05:48:44;11.20;;;7.30;;
60730;SDS011;46580;52.114;11.674;2023-10-13T05:51:25;12.23;;;7.03;;
60730;SDS011;46580;52.114;11.674;2023-10-13T05:54:11;14.53;;;8.47;;
60730;SDS011;46580;52.114;11.674;2023-10-13T05:56:38;13.13;;;7.40;;
60730;SDS011;46580;52.114;11.674;2023-10-13T05:59:26;13.30;;;6.83;;
60730;SDS011;46580;52.114;11.674;2023-10-13T06:02:11;10.10;;;6.67;;
60730;SDS011;46580;52.114;11.674;2023-10-13T06:04:56;10.40;;;7.03;;
60730;SDS011;46580;52.114;11.674;2023-10-13T06:07:40;11.70;;;6.83;;
60730;SDS011;46580;52.114;11.674;2023-10-13T06:10:24;17.50;;;7.40;;
60730;SDS011;46580;52.114;11.674;2023-10-13T06:13:08;14.10;;;6.80;;
60730;SDS011;46580;52.114;11.674;2023-10-13T06:15:53;14.57;;;7.40;;
60730;SDS011;46580;52.114;11.674;2023-10-13T06:18:37;12.30;;;7.67;;
60730;SDS011;46580;52.114;11.674;2023-10-13T06:21:21;12.53;;;5.87;;
60730;SDS011;46580;52.114;11.674;2023-10-13T06:24:05;12.77;;;6.93;;
60730;SDS011;46580;52.114;11.674;2023-10-13T06:26:50;9.43;;;6.80;;
60730;SDS011;46580;52.114;11.674;2023-10-13T06:29:34;9.97;;;5.80;;
60730;SDS011;46580;52.114;11.674;2023-10-13T06:31:59;12.40;;;7.47;;
60730;SDS011;46580;52.114;11.674;2023-10-13T06:34:27;12.07;;;6.43;;
60730;SDS011;46580;52.114;11.674;2023-10-13T06:37:25;14.07;;;6.77;;
60730;SDS011;46580;52.114;11.674;2023-10-13T06:39:50;10.83;;;6.80;;
60730;SDS011;46580;52.114;11.674;2023-10-13T06:42:25;11.53;;;6.63;;
60730;SDS011;46580;52.114;11.674;2023-10-13T06:44:56;11.73;;;6.47;;
60730;SDS011;46580;52.114;11.674;2023-10-13T06:47:23;10.23;;;6.43;;
60730;SDS011;46580;52.114;11.674;2023-10-13T06:49:49;12.90;;;6.63;;
60730;SDS011;46580;52.114;11.674;2023-10-13T06:52:19;9.07;;;6.20;;
60730;SDS011;46580;52.114;11.674;2023-10-13T06:54:49;12.93;;;7.10;;
60730;SDS011;46580;52.114;11.674;2023-10-13T06:57:15;15.10;;;7.63;;
60730;SDS011;46580;52.114;11.674;2023-10-13T06:59:45;14.67;;;6.93;;
60730;SDS011;46580;52.114;11.674;2023-10-13T07:02:14;9.70;;;6.70;;
60730;SDS011;46580;52.114;11.674;2023-10-13T07:04:49;10.67;;;6.47;;
60730;SDS011;46580;52.114;11.674;2023-10-13T07:07:20;11.53;;;6.87;;
60730;SDS011;46580;52.114;11.674;2023-10-13T07:09:47;14.07;;;6.30;;
60730;SDS011;46580;52.114;11.674;2023-10-13T07:12:20;9.20;;;6.40;;
60730;SDS011;46580;52.114;11.674;2023-10-13T07:14:51;12.10;;;7.50;;
60730;SDS011;46580;52.114;11.674;2023-10-13T07:17:18;14.10;;;7.17;;
60730;SDS011;46580;52.114;11.674;2023-10-13T07:19:53;8.97;;;6.00;;
60730;SDS011;46580;52.114;11.674;2023-10-13T07:22:21;12.27;;;7.23;;
60730;SDS011;46580;52.114;11.674;2023-10-13T07:24:47;11.07;;;6.63;;
60730;SDS011;46580;52.114;11.674;2023-10-13T07:29:56;13.33;;;5.97;;
60730;SDS011;46580;52.114;11.674;2023-10-13T07:32:23;14.47;;;6.83;;
60730;SDS011;46580;52.114;11.674;2023-10-13T07:34:52;9.87;;;6.50;;
60730;SDS011;46580;52.114;11.674;2023-10-13T07:37:21;10.67;;;6.57;;
60730;SDS011;46580;52.114;11.674;2023-10-13T07:39:53;14.73;;;7.17;;
60730;SDS011;46580;52.114;11.674;2023-10-13T07:42:18;12.57;;;6.03;;
60730;SDS011;46580;52.114;11.674;2023-10-13T07:44:47;11.60;;;6.60;;
60730;SDS011;46580;52.114;11.674;2023-10-13T07:47:12;8.33;;;6.27;;
60730;SDS011;46580;52.114;11.674;2023-10-13T07:49:39;12.43;;;6.10;;
60730;SDS011;46580;52.114;11.674;2023-10-13T07:52:06;10.27;;;6.37;;
60730;SDS011;46580;52.114;11.674;2023-10-13T07:54:46;13.60;;;6.90;;
60730;SDS011;46580;52.114;11.674;2023-10-13T07:57:20;8.83;;;6.07;;
60730;SDS011;46580;52.114;11.674;2023-10-13T07:59:54;9.90;;;6.10;;
60730;SDS011;46580;52.114;11.674;2023-10-13T08:02:31;10.00;;;5.37;;
60730;SDS011;46580;52.114;11.674;2023-10-13T08:05:16;9.47;;;5.40;;
60730;SDS011;46580;52.114;11.674;2023-10-13T08:08:02;9.40;;;5.40;;
60730;SDS011;46580;52.114;11.674;2023-10-13T08:10:35;9.23;;;5.30;;
60730;SDS011;46580;52.114;11.674;2023-10-13T08:13:01;11.17;;;5.53;;
60730;SDS011;46580;52.114;11.674;2023-10-13T08:15:26;11.23;;;5.33;;
60730;SDS011;46580;52.114;11.674;2023-10-13T08:17:58;7.53;;;4.43;;
60730;SDS011;46580;52.114;11.674;2023-10-13T08:20:32;9.00;;;4.33;;
60730;SDS011;46580;52.114;11.674;2023-10-13T08:23:03;7.47;;;4.27;;
60730;SDS011;46580;52.114;11.674;2023-10-13T08:25:45;11.47;;;4.83;;
60730;SDS011;46580;52.114;11.674;2023-10-13T08:28:29;7.73;;;4.23;;
60730;SDS011;46580;52.114;11.674;2023-10-13T08:31:06;8.03;;;4.23;;
60730;SDS011;46580;52.114;11.674;2023-10-13T08:33:50;7.27;;;4.87;;
60730;SDS011;46580;52.114;11.674;2023-10-13T08:36:15;6.43;;;4.53;;
60730;SDS011;46580;52.114;11.674;2023-10-13T08:39:03;7.40;;;4.40;;
60730;SDS011;46580;52.114;11.674;2023-10-13T08:41:48;5.87;;;3.97;;
60730;SDS011;46580;52.114;11.674;2023-10-13T08:44:35;7.70;;;3.90;;
60730;SDS011;46580;52.114;11.674;2023-10-13T08:47:03;6.40;;;3.90;;
60730;SDS011;46580;52.114;11.674;2023-10-13T08:49:29;8.43;;;4.17;;
60730;SDS011;46580;52.114;11.674;2023-10-13T08:51:55;7.57;;;3.93;;
60730;SDS011;46580;52.114;11.674;2023-10-13T08:54:52;7.40;;;3.67;;
60730;SDS011;46580;52.114;11.674;2023-10-13T08:57:37;9.97;;;4.50;;
60730;SDS011;46580;52.114;11.674;2023-10-13T09:00:02;8.23;;;3.50;;
60730;SDS011;46580;52.114;11.674;2023-10-13T09:02:47;5.70;;;3.33;;
60730;SDS011;46580;52.114;11.674;2023-10-13T09:05:35;6.33;;;4.00;;
60730;SDS011;46580;52.114;11.674;2023-10-13T09:08:25;5.23;;;3.33;;
60730;SDS011;46580;52.114;11.674;2023-10-13T09:11:00;4.67;;;3.07;;
60730;SDS011;46580;52.114;11.674;2023-10-13T09:13:37;8.27;;;4.20;;
60730;SDS011;46580;52.114;11.674;2023-10-13T09:16:09;5.63;;;3.63;;
60730;SDS011;46580;52.114;11.674;2023-10-13T09:18:41;5.30;;;3.37;;
60730;SDS011;46580;52.114;11.674;2023-10-13T09:21:11;7.70;;;3.67;;
60730;SDS011;46580;52.114;11.674;2023-10-13T09:24:08;5.00;;;3.57;;
60730;SDS011;46580;52.114;11.674;2023-10-13T09:26:42;8.00;;;4.00;;
60730;SDS011;46580;52.114;11.674;2023-10-13T09:29:14;8.63;;;4.10;;
60730;SDS011;46580;52.114;11.674;2023-10-13T09:31:44;9.70;;;4.20;;
60730;SDS011;46580;52.114;11.674;2023-10-13T09:34:19;5.57;;;3.60;;
60730;SDS011;46580;52.114;11.674;2023-10-13T09:36:46;5.57;;;3.93;;
60730;SDS011;46580;52.114;11.674;2023-10-13T09:39:12;6.50;;;4.27;;
60730;SDS011;46580;52.114;11.674;2023-10-13T09:41:54;8.60;;;4.13;;
60730;SDS011;46580;52.114;11.674;2023-10-13T09:44:20;5.50;;;3.67;;
60730;SDS011;46580;52.114;11.674;2023-10-13T09:46:46;6.33;;;3.87;;
60730;SDS011;46580;52.114;11.674;2023-10-13T09:49:14;8.17;;;4.23;;
60730;SDS011;46580;52.114;11.674;2023-10-13T09:52:09;5.77;;;3.60;;
60730;SDS011;46580;52.114;11.674;2023-10-13T09:54:53;7.00;;;3.87;;
60730;SDS011;46580;52.114;11.674;2023-10-13T09:57:25;5.53;;;3.83;;
60730;SDS011;46580;52.114;11.674;2023-10-13T10:00:32;6.43;;;4.53;;
60730;SDS011;46580;52.114;11.674;2023-10-13T10:02:59;8.70;;;4.20;;
60730;SDS011;46580;52.114;11.674;2023-10-13T10:05:40;4.63;;;3.07;;
60730;SDS011;46580;52.114;11.674;2023-10-13T10:08:06;4.87;;;3.23;;
60730;SDS011;46580;52.114;11.674;2023-10-13T10:10:51;4.87;;;3.47;;
60730;SDS011;46580;52.114;11.674;2023-10-13T10:16:12;8.00;;;4.00;;
60730;SDS011;46580;52.114;11.674;2023-10-13T10:18:47;6.47;;;3.17;;
60730;SDS011;46580;52.114;11.674;2023-10-13T10:21:32;5.97;;;3.60;;
60730;SDS011;46580;52.114;11.674;2023-10-13T10:24:01;7.13;;;3.57;;
60730;SDS011;46580;52.114;11.674;2023-10-13T10:26:33;6.93;;;3.20;;
60730;SDS011;46580;52.114;11.674;2023-10-13T10:28:58;5.97;;;3.37;;
60730;SDS011;46580;52.114;11.674;2023-10-13T10:31:32;7.23;;;3.20;;
60730;SDS011;46580;52.114;11.674;2023-10-13T10:34:14;5.77;;;3.20;;
60730;SDS011;46580;52.114;11.674;2023-10-13T10:36:45;5.67;;;3.37;;
60730;SDS011;46580;52.114;11.674;2023-10-13T10:39:12;5.23;;;3.70;;
60730;SDS011;46580;52.114;11.674;2023-10-13T10:41:37;7.77;;;3.70;;
60730;SDS011;46580;52.114;11.674;2023-10-13T10:44:17;4.90;;;3.23;;
60730;SDS011;46580;52.114;11.674;2023-10-13T10:47:08;8.10;;;2.90;;
60730;SDS011;46580;52.114;11.674;2023-10-13T10:49:57;6.97;;;3.53;;
60730;SDS011;46580;52.114;11.674;2023-10-13T10:52:23;8.63;;;3.83;;
60730;SDS011;46580;52.114;11.674;2023-10-13T10:54:58;7.13;;;3.37;;
60730;SDS011;46580;52.114;11.674;2023-10-13T10:57:24;6.30;;;3.33;;
60730;SDS011;46580;52.114;11.674;2023-10-13T10:59:54;6.67;;;3.47;;
60730;SDS011;46580;52.114;11.674;2023-10-13T11:02:36;4.13;;;3.17;;
60730;SDS011;46580;52.114;11.674;2023-10-13T11:05:02;7.33;;;3.47;;
60730;SDS011;46580;52.114;11.674;2023-10-13T11:07:31;7.57;;;3.77;;
60730;SDS011;46580;52.114;11.674;2023-10-13T11:09:56;7.70;;;3.53;;
60730;SDS011;46580;52.114;11.674;2023-10-13T11:12:36;4.23;;;3.00;;
60730;SDS011;46580;52.114;11.674;2023-10-13T11:15:07;6.53;;;2.90;;
60730;SDS011;46580;52.114;11.674;2023-10-13T11:17:50;6.60;;;2.23;;
60730;SDS011;46580;52.114;11.674;2023-10-13T11:20:19;7.30;;;2.67;;
60730;SDS011;46580;52.114;11.674;2023-10-13T11:23:14;6.87;;;2.97;;
60730;SDS011;46580;52.114;11.674;2023-10-13T11:25:40;5.27;;;2.87;;
60730;SDS011;46580;52.114;11.674;2023-10-13T11:30:43;5.43;;;2.90;;
60730;SDS011;46580;52.114;11.674;2023-10-13T11:33:14;4.37;;;2.70;;
60730;SDS011;46580;52.114;11.674;2023-10-13T11:35:48;6.53;;;2.60;;
60730;SDS011;46580;52.114;11.674;2023-10-13T11:38:26;11.47;;;3.17;;
60730;SDS011;46580;52.114;11.674;2023-10-13T11:40:53;6.83;;;2.87;;
60730;SDS011;46580;52.114;11.674;2023-10-13T11:46:16;4.97;;;2.43;;
60730;SDS011;46580;52.114;11.674;2023-10-13T11:49:03;4.07;;;2.80;;
60730;SDS011;46580;52.114;11.674;2023-10-13T11:51:41;7.23;;;2.90;;
60730;SDS011;46580;52.114;11.674;2023-10-13T11:54:10;4.63;;;2.57;;
60730;SDS011;46580;52.114;11.674;2023-10-13T11:56:36;11.27;;;3.20;;
60730;SDS011;46580;52.114;11.674;2023-10-13T11:59:04;7.77;;;3.03;;
60730;SDS011;46580;52.114;11.674;2023-10-13T12:01:31;5.90;;;2.73;;
60730;SDS011;46580;52.114;11.674;2023-10-13T12:04:15;9.47;;;3.60;;
60730;SDS011;46580;52.114;11.674;2023-10-13T12:07:00;5.73;;;3.20;;
60730;SDS011;46580;52.114;11.674;2023-10-13T12:09:45;8.87;;;3.13;;
60730;SDS011;46580;52.114;11.674;2023-10-13T12:12:18;4.73;;;3.03;;
60730;SDS011;46580;52.114;11.674;2023-10-13T12:14:43;9.43;;;3.33;;
60730;SDS011;46580;52.114;11.674;2023-10-13T12:17:19;9.33;;;2.63;;
60730;SDS011;46580;52.114;11.674;2023-10-13T12:19:53;7.23;;;2.80;;
60730;SDS011;46580;52.114;11.674;2023-10-13T12:22:22;4.83;;;2.90;;
60730;SDS011;46580;52.114;11.674;2023-10-13T12:24:53;9.23;;;2.70;;
60730;SDS011;46580;52.114;11.674;2023-10-13T12:27:21;7.13;;;3.00;;
60730;SDS011;46580;52.114;11.674;2023-10-13T12:30:00;4.13;;;2.90;;
60730;SDS011;46580;52.114;11.674;2023-10-13T12:32:33;4.63;;;3.10;;
60730;SDS011;46580;52.114;11.674;2023-10-13T12:34:59;7.07;;;2.77;;
60730;SDS011;46580;52.114;11.674;2023-10-13T12:37:45;8.30;;;2.50;;
60730;SDS011;46580;52.114;11.674;2023-10-13T12:40:14;8.20;;;2.60;;
60730;SDS011;46580;52.114;11.674;2023-10-13T12:43:00;8.40;;;2.77;;
60730;SDS011;46580;52.114;11.674;2023-10-13T12:45:45;6.50;;;3.03;;
60730;SDS011;46580;52.114;11.674;2023-10-13T12:48:30;5.33;;;2.77;;
60730;SDS011;46580;52.114;11.674;2023-10-13T12:51:15;5.73;;;2.87;;
60730;SDS011;46580;52.114;11.674;2023-10-13T12:53:53;7.97;;;3.00;;
60730;SDS011;46580;52.114;11.674;2023-10-13T12:56:20;4.53;;;3.13;;
60730;SDS011;46580;52.114;11.674;2023-10-13T12:58:51;6.13;;;3.17;;
60730;SDS011;46580;52.114;11.674;2023-10-13T13:01:19;9.13;;;2.60;;
60730;SDS011;46580;52.114;11.674;2023-10-13T13:03:50;5.83;;;2.87;;
60730;SDS011;46580;52.114;11.674;2023-10-13T13:06:24;6.53;;;2.73;;
60730;SDS011;46580;52.114;11.674;2023-10-13T13:08:51;7.37;;;2.57;;
60730;SDS011;46580;52.114;11.674;2023-10-13T13:11:17;5.03;;;2.57;;
60730;SDS011;46580;52.114;11.674;2023-10-13T13:13:43;4.50;;;2.83;;
60730;SDS011;46580;52.114;11.674;2023-10-13T13:16:11;6.33;;;2.93;;
60730;SDS011;46580;52.114;11.674;2023-10-13T13:18:37;8.60;;;2.60;;
60730;SDS011;46580;52.114;11.674;2023-10-13T13:21:02;9.07;;;3.77;;
60730;SDS011;46580;52.114;11.674;2023-10-13T13:23:31;7.37;;;2.73;;
60730;SDS011;46580;52.114;11.674;2023-10-13T13:25:57;8.50;;;3.43;;
60730;SDS011;46580;52.114;11.674;2023-10-13T13:28:22;5.70;;;2.83;;
60730;SDS011;46580;52.114;11.674;2023-10-13T13:30:49;7.80;;;2.73;;
60730;SDS011;46580;52.114;11.674;2023-10-13T13:33:16;7.23;;;3.07;;
60730;SDS011;46580;52.114;11.674;2023-10-13T13:35:48;8.00;;;2.80;;
60730;SDS011;46580;52.114;11.674;2023-10-13T13:38:14;8.27;;;3.03;;
60730;SDS011;46580;52.114;11.674;2023-10-13T13:40:47;4.37;;;2.77;;
60730;SDS011;46580;52.114;11.674;2023-10-13T13:43:19;9.80;;;2.83;;
60730;SDS011;46580;52.114;11.674;2023-10-13T13:46:03;5.30;;;2.80;;
60730;SDS011;46580;52.114;11.674;2023-10-13T13:48:34;8.73;;;3.20;;
60730;SDS011;46580;52.114;11.674;2023-10-13T13:51:06;8.27;;;3.30;;
60730;SDS011;46580;52.114;11.674;2023-10-13T13:53:44;4.20;;;2.50;;
60730;SDS011;46580;52.114;11.674;2023-10-13T13:56:12;6.43;;;3.10;;
60730;SDS011;46580;52.114;11.674;2023-10-13T13:58:42;11.60;;;3.50;;
60730;SDS011;46580;52.114;11.674;2023-10-13T14:01:09;10.67;;;3.47;;
60730;SDS011;46580;52.114;11.674;2023-10-13T14:03:40;11.27;;;3.40;;
60730;SDS011;46580;52.114;11.674;2023-10-13T14:08:43;6.23;;;3.57;;
60730;SDS011;46580;52.114;11.674;2023-10-13T14:11:10;5.80;;;2.87;;
60730;SDS011;46580;52.114;11.674;2023-10-13T14:13:39;7.30;;;3.83;;
60730;SDS011;46580;52.114;11.674;2023-10-13T14:16:23;7.60;;;3.40;;
60730;SDS011;46580;52.114;11.674;2023-10-13T14:18:49;7.20;;;3.17;;
60730;SDS011;46580;52.114;11.674;2023-10-13T14:21:16;4.27;;;3.20;;
60730;SDS011;46580;52.114;11.674;2023-10-13T14:23:48;5.53;;;3.10;;
60730;SDS011;46580;52.114;11.674;2023-10-13T14:26:17;6.70;;;3.77;;
60730;SDS011;46580;52.114;11.674;2023-10-13T14:28:46;8.23;;;3.63;;
60730;SDS011;46580;52.114;11.674;2023-10-13T14:31:25;6.13;;;3.27;;
60730;SDS011;46580;52.114;11.674;2023-10-13T14:33:51;6.93;;;3.47;;
60730;SDS011;46580;52.114;11.674;2023-10-13T14:36:16;6.43;;;3.30;;
60730;SDS011;46580;52.114;11.674;2023-10-13T14:38:45;6.70;;;3.13;;
60730;SDS011;46580;52.114;11.674;2023-10-13T14:41:16;7.33;;;3.40;;
60730;SDS011;46580;52.114;11.674;2023-10-13T14:43:45;8.10;;;3.00;;
60730;SDS011;46580;52.114;11.674;2023-10-13T14:46:17;10.03;;;3.30;;
60730;SDS011;46580;52.114;11.674;2023-10-13T14:48:47;5.83;;;3.20;;
60730;SDS011;46580;52.114;11.674;2023-10-13T14:51:16;8.43;;;2.90;;
60730;SDS011;46580;52.114;11.674;2023-10-13T14:53:44;5.80;;;2.70;;
60730;SDS011;46580;52.114;11.674;2023-10-13T14:56:14;4.80;;;2.90;;
60730;SDS011;46580;52.114;11.674;2023-10-13T14:58:41;7.43;;;3.17;;
60730;SDS011;46580;52.114;11.674;2023-10-13T15:01:12;4.83;;;3.00;;
60730;SDS011;46580;52.114;11.674;2023-10-13T15:03:42;6.03;;;3.00;;
60730;SDS011;46580;52.114;11.674;2023-10-13T15:06:14;6.37;;;3.03;;
60730;SDS011;46580;52.114;11.674;2023-10-13T15:08:42;7.30;;;2.80;;
60730;SDS011;46580;52.114;11.674;2023-10-13T15:11:10;4.77;;;3.13;;
60730;SDS011;46580;52.114;11.674;2023-10-13T15:13:42;7.93;;;2.90;;
60730;SDS011;46580;52.114;11.674;2023-10-13T15:16:16;5.93;;;3.30;;
60730;SDS011;46580;52.114;11.674;2023-10-13T15:18:46;8.37;;;2.90;;
60730;SDS011;46580;52.114;11.674;2023-10-13T15:21:19;6.47;;;2.90;;